METAR Data
IDs: Format: Raw Decoded Include TAF

Data at: 0120 UTC 01 Mar 2021

LTBJ 010050Z 36015KT CAVOK 06/M04 Q1023 NOSIG RMK RWY16 35015KT